This is the latest recevied weather packets stored in our database for station/object K1NOT-WX. If no packets are shown the sender has not sent any weather packets the latest 10 day(s).
| Time | Temp. | Humidity | Pressure | Rain* | Wind** | Luminosity | Snow |
|---|---|---|---|---|---|---|---|
| 1777221733 | 15.56° C | 43% | 1001 hPa | 0 mm | - | - | - |
| 1777220833 | 15° C | 48% | 1001 hPa | 0 mm | - | - | - |
| 1777219933 | 14.44° C | 49% | 1001 hPa | 0 mm | - | - | - |
| 1777219033 | 14.44° C | 49% | 1001.4 hPa | 0 mm | - | - | - |
| 1777218133 | 12.22° C | 53% | 1001.4 hPa | 0 mm | - | - | - |
| 1777217233 | 12.22° C | 55% | 1001.4 hPa | 0 mm | - | - | - |
| 1777216333 | 11.11° C | 59% | 1001.4 hPa | 0 mm | - | - | - |
| 1777215433 | 10° C | 65% | 1001 hPa | 0 mm | - | - | - |
| 1777214533 | 8.89° C | 70% | 1001 hPa | 0 mm | - | - | - |
| 1777213633 | 10.56° C | 61% | 1000.7 hPa | 0 mm | - | - | - |
| 1777212733 | 10° C | 65% | 1000.7 hPa | 0 mm | - | - | - |
| 1777211833 | 7.22° C | 74% | 1000.7 hPa | 0 mm | - | - | - |
| 1777210933 | 6.11° C | 84% | 1000.7 hPa | 0 mm | - | - | - |
| 1777210033 | 5.56° C | 78% | 1000.3 hPa | 0 mm | - | - | - |
| 1777209133 | 4.44° C | 81% | 1000.3 hPa | 0 mm | - | - | - |
| 1777208233 | 5.56° C | 75% | 1000.3 hPa | 0 mm | - | - | - |
| 1777207332 | 4.44° C | 79% | 1000.3 hPa | 0 mm | - | - | - |
| 1777206432 | 4.44° C | 78% | 1000.7 hPa | 0 mm | - | - | - |
| 1777205533 | 4.44° C | 78% | 1000.3 hPa | 0 mm | - | - | - |
| 1777204633 | 5° C | 77% | 1000 hPa | 0 mm | - | - | - |
| 1777203733 | 6.67° C | 84% | 1000.3 hPa | 0 mm | - | - | - |
| 1777202832 | 7.22° C | 72% | 1000 hPa | 0 mm | - | - | - |
| 1777201932 | 6.11° C | 68% | 1000.3 hPa | 0 mm | - | - | - |
| 1777201033 | 5.56° C | 72% | 1000 hPa | 0 mm | - | - | - |
| 1777200132 | 6.11° C | 68% | 1000 hPa | 0 mm | - | - | - |
* Rain latest hour (hover to see other rain measurements)
** Current wind speed in m/s (hover to see current wind gust speed)